Time;durP1;ratioP1;P1;durP2;ratioP2;P2;SDS_P1;SDS_P2;PMS_P1;PMS_P2;Temp;Humidity;BMP_temperature;BMP_pressure;BME280_temperature;BME280_humidity;BME280_pressure;Samples;Min_cycle;Max_cycle;Signal;HPM_P1;HPM_P2
2022/08/09 00:00:10;;;;;;;3.92;3.05;;;15.10;99.90;;;;;;5035182;28;20045;-78
2022/08/09 00:02:35;;;;;;;5.15;3.38;;;15.10;99.90;;;;;;5034546;28;20107;-78
2022/08/09 00:05:02;;;;;;;4.50;3.10;;;15.10;99.90;;;;;;5034864;28;20053;-78
2022/08/09 00:07:28;;;;;;;5.43;3.28;;;15.00;99.90;;;;;;5034532;28;20049;-78
2022/08/09 00:09:53;;;;;;;4.25;3.33;;;15.00;99.90;;;;;;5035055;28;20059;-78
2022/08/09 00:12:19;;;;;;;5.80;3.50;;;14.90;99.90;;;;;;5035270;28;20077;-78
2022/08/09 00:14:45;;;;;;;5.55;3.35;;;14.90;99.90;;;;;;5033750;28;20479;-78
2022/08/09 00:17:10;;;;;;;3.75;2.83;;;14.90;99.90;;;;;;5033730;28;20476;-78
2022/08/09 00:19:37;;;;;;;5.55;2.70;;;14.90;99.90;;;;;;5033523;28;20042;-78
2022/08/09 00:22:03;;;;;;;4.10;3.20;;;14.80;99.90;;;;;;5034010;28;20053;-79
2022/08/09 00:24:30;;;;;;;5.78;3.03;;;14.70;99.90;;;;;;5034159;28;20533;-78
2022/08/09 00:26:56;;;;;;;3.60;2.63;;;14.70;99.90;;;;;;5034437;28;20052;-78
2022/08/09 00:29:22;;;;;;;4.05;2.80;;;14.70;99.90;;;;;;5034688;28;20072;-78
2022/08/09 00:31:48;;;;;;;3.20;2.50;;;14.60;99.90;;;;;;5034556;28;20045;-79
2022/08/09 00:34:14;;;;;;;4.35;3.53;;;14.60;99.90;;;;;;5034086;28;20414;-79
2022/08/09 00:36:40;;;;;;;4.43;3.08;;;14.60;99.90;;;;;;5034261;28;20045;-78
2022/08/09 00:39:07;;;;;;;7.00;3.75;;;14.60;99.90;;;;;;5034138;28;20544;-78
2022/08/09 00:41:32;;;;;;;3.13;2.63;;;14.50;99.90;;;;;;5034304;28;20061;-78
2022/08/09 00:43:58;;;;;;;3.30;2.78;;;14.50;99.90;;;;;;5034551;28;20474;-79
2022/08/09 00:46:24;;;;;;;4.22;3.70;;;14.50;99.90;;;;;;5034236;28;20057;-79
2022/08/09 00:48:50;;;;;;;3.00;2.70;;;14.40;99.90;;;;;;5034418;28;20041;-78
2022/08/09 00:51:17;;;;;;;4.20;2.92;;;14.50;99.90;;;;;;5034283;28;20053;-78
2022/08/09 00:53:45;;;;;;;3.33;2.60;;;14.50;99.90;;;;;;5033872;28;20581;-78
2022/08/09 00:56:11;;;;;;;3.63;2.45;;;14.50;99.90;;;;;;5034436;28;20091;-78
2022/08/09 00:58:37;;;;;;;2.42;1.80;;;14.50;99.90;;;;;;5034056;28;20049;-78
2022/08/09 01:01:13;;;;;;;1.90;1.80;;;14.40;99.90;;;;;;5034149;28;20041;-77
2022/08/09 01:03:50;;;;;;;4.30;2.10;;;14.40;99.90;;;;;;5034253;28;20083;-78
2022/08/09 01:06:26;;;;;;;3.25;2.95;;;14.30;99.90;;;;;;5034392;28;20077;-78
2022/08/09 01:09:23;;;;;;;2.40;2.17;;;14.20;99.90;;;;;;5033822;28;20485;-77
2022/08/09 01:11:53;;;;;;;5.75;4.18;;;14.20;99.90;;;;;;5033723;28;20045;-78
2022/08/09 01:14:31;;;;;;;7.03;3.35;;;14.20;99.90;;;;;;5033879;28;20207;-77
2022/08/09 01:17:28;;;;;;;4.70;3.20;;;14.10;99.90;;;;;;5033626;28;20057;-78
2022/08/09 01:20:01;;;;;;;4.00;3.50;;;14.10;99.90;;;;;;5033538;28;20121;-78
2022/08/09 01:22:51;;;;;;;4.22;3.28;;;14.10;99.90;;;;;;5033647;28;20056;-78
2022/08/09 01:25:25;;;;;;;4.57;3.85;;;14.10;99.90;;;;;;5033941;28;20053;-78
2022/08/09 01:27:53;;;;;;;5.32;3.58;;;14.10;99.90;;;;;;5033523;28;20148;-78
2022/08/09 01:30:22;;;;;;;4.32;3.05;;;14.10;99.90;;;;;;5033706;28;20052;-78
2022/08/09 01:32:51;;;;;;;3.55;3.25;;;14.10;99.90;;;;;;5033211;28;20049;-77
2022/08/09 01:35:39;;;;;;;4.95;3.80;;;14.00;99.90;;;;;;5033838;28;20079;-79
2022/08/09 01:38:10;;;;;;;6.90;3.92;;;14.00;99.90;;;;;;5032960;28;20061;-77
2022/08/09 01:40:40;;;;;;;6.68;3.60;;;14.00;99.90;;;;;;5032943;28;20365;-77
2022/08/09 01:43:07;;;;;;;5.10;4.10;;;14.00;99.90;;;;;;5033126;28;20061;-77
2022/08/09 01:45:34;;;;;;;5.25;4.10;;;14.00;99.90;;;;;;5033148;28;20042;-77
2022/08/09 01:48:01;;;;;;;5.50;4.13;;;14.00;99.90;;;;;;5033028;28;20115;-77
2022/08/09 01:50:29;;;;;;;9.27;4.60;;;14.00;99.90;;;;;;5033371;28;20057;-77
2022/08/09 01:52:56;;;;;;;4.95;4.15;;;13.90;99.90;;;;;;5032851;28;20049;-77
2022/08/09 01:55:24;;;;;;;4.60;3.45;;;13.90;99.90;;;;;;5032773;28;20073;-77
2022/08/09 01:57:52;;;;;;;7.70;4.25;;;13.90;99.90;;;;;;5033257;28;20057;-77
2022/08/09 02:00:18;;;;;;;4.57;3.35;;;13.90;99.90;;;;;;5032812;28;20053;-77
2022/08/09 02:02:48;;;;;;;7.45;3.35;;;13.80;99.90;;;;;;5032692;28;20124;-77
2022/08/09 02:05:17;;;;;;;4.88;3.58;;;13.80;99.90;;;;;;5032756;28;20045;-77
2022/08/09 02:07:52;;;;;;;2.63;2.42;;;13.80;99.90;;;;;;5032620;28;20056;-77
2022/08/09 02:10:39;;;;;;;3.70;2.97;;;13.70;99.90;;;;;;5032406;28;20592;-77
2022/08/09 02:13:07;;;;;;;3.97;2.60;;;13.70;99.90;;;;;;5032683;28;20076;-77
2022/08/09 02:15:37;;;;;;;5.20;3.72;;;13.70;99.90;;;;;;5032674;28;20060;-77
2022/08/09 02:18:05;;;;;;;5.15;2.83;;;13.70;99.90;;;;;;5032655;28;20046;-77
2022/08/09 02:20:34;;;;;;;5.38;3.70;;;13.70;99.90;;;;;;5032854;28;20179;-77
2022/08/09 02:23:02;;;;;;;9.18;3.60;;;13.70;99.90;;;;;;5032437;28;20048;-77
2022/08/09 02:25:32;;;;;;;4.35;3.45;;;13.60;99.90;;;;;;5032743;28;20150;-77
2022/08/09 02:28:07;;;;;;;3.90;2.88;;;13.60;99.90;;;;;;5032581;28;20128;-77
2022/08/09 02:30:46;;;;;;;5.60;3.38;;;13.40;99.90;;;;;;5032472;28;20046;-77
2022/08/09 02:33:21;;;;;;;3.20;2.67;;;13.60;99.90;;;;;;5032547;28;20038;-78
2022/08/09 02:35:50;;;;;;;4.22;2.83;;;13.60;99.90;;;;;;5031622;28;20440;-77
2022/08/09 02:38:23;;;;;;;4.30;3.25;;;13.50;99.90;;;;;;5032154;28;20052;-77
2022/08/09 02:40:51;;;;;;;5.40;3.42;;;13.50;99.90;;;;;;5032227;28;20033;-77
2022/08/09 02:43:19;;;;;;;3.72;2.88;;;13.50;99.90;;;;;;5032357;28;20477;-77
2022/08/09 02:45:46;;;;;;;3.50;3.08;;;13.50;99.90;;;;;;5038465;28;20045;-78
2022/08/09 02:48:15;;;;;;;4.28;3.25;;;13.50;99.90;;;;;;5039392;28;20077;-78
2022/08/09 02:50:47;;;;;;;3.22;2.67;;;13.40;99.90;;;;;;5038836;28;20037;-78
2022/08/09 02:53:25;;;;;;;4.13;3.72;;;13.40;99.90;;;;;;5038849;28;20045;-77
2022/08/09 02:55:54;;;;;;;3.15;2.72;;;13.40;99.90;;;;;;5038375;28;20466;-77
2022/08/09 02:58:22;;;;;;;3.53;2.60;;;13.40;99.90;;;;;;5039282;28;20053;-77
2022/08/09 03:00:48;;;;;;;3.65;2.88;;;13.40;99.90;;;;;;5039394;28;20401;-77
2022/08/09 03:03:16;;;;;;;3.40;2.67;;;13.30;99.90;;;;;;5039084;28;20053;-78
2022/08/09 03:05:42;;;;;;;3.72;3.30;;;13.30;99.90;;;;;;5039641;28;20385;-78
2022/08/09 03:08:09;;;;;;;1.85;1.73;;;13.30;99.90;;;;;;5038998;28;20056;-77
2022/08/09 03:10:36;;;;;;;3.15;2.00;;;13.30;99.90;;;;;;5037877;28;20466;-76
2022/08/09 03:13:04;;;;;;;2.03;1.83;;;13.20;99.90;;;;;;5038945;28;20588;-76
2022/08/09 03:15:30;;;;;;;2.92;1.88;;;13.20;99.90;;;;;;5038489;28;20569;-76
2022/08/09 03:17:57;;;;;;;2.47;2.28;;;13.20;99.90;;;;;;5038964;28;20052;-76
2022/08/09 03:20:23;;;;;;;3.75;2.55;;;13.30;99.90;;;;;;5039444;28;20091;-76
2022/08/09 03:22:50;;;;;;;2.33;1.80;;;13.20;99.90;;;;;;5038795;28;20053;-76
2022/08/09 03:25:15;;;;;;;2.10;1.55;;;13.20;99.90;;;;;;5038937;28;20124;-76
2022/08/09 03:27:45;;;;;;;2.92;1.90;;;13.20;99.90;;;;;;5038226;28;20081;-76
2022/08/09 03:30:12;;;;;;;1.63;1.50;;;13.20;99.90;;;;;;5038794;28;20037;-76
2022/08/09 03:32:39;;;;;;;3.70;2.80;;;13.20;99.90;;;;;;5038292;28;20057;-76
2022/08/09 03:35:05;;;;;;;2.90;2.30;;;13.20;99.90;;;;;;5038830;28;20130;-76
2022/08/09 03:37:31;;;;;;;2.45;2.20;;;13.20;99.90;;;;;;5038523;28;20099;-77
2022/08/09 03:39:57;;;;;;;2.95;2.60;;;13.20;99.90;;;;;;5038865;28;20079;-77
2022/08/09 03:42:23;;;;;;;5.22;3.40;;;13.20;99.90;;;;;;5038355;28;20057;-76
2022/08/09 03:44:49;;;;;;;5.85;3.60;;;13.20;99.90;;;;;;5038687;28;20451;-76
2022/08/09 03:47:14;;;;;;;2.45;2.15;;;13.20;99.90;;;;;;5038812;28;20111;-77
2022/08/09 03:49:41;;;;;;;2.88;2.42;;;13.20;99.90;;;;;;5038205;28;20041;-76
2022/08/09 03:52:08;;;;;;;4.47;3.13;;;13.10;99.90;;;;;;5037732;28;20080;-76
2022/08/09 03:54:36;;;;;;;4.63;3.67;;;13.20;99.90;;;;;;5037986;28;20081;-76
2022/08/09 03:57:05;;;;;;;3.92;2.80;;;13.20;99.90;;;;;;5034874;28;20054;-76
2022/08/09 03:59:32;;;;;;;3.72;2.17;;;13.30;99.90;;;;;;5035371;28;20044;-76
2022/08/09 04:01:59;;;;;;;4.97;2.83;;;13.30;99.90;;;;;;5034368;28;20045;-76
2022/08/09 04:04:27;;;;;;;2.95;2.65;;;13.30;99.90;;;;;;5035166;28;20057;-76
2022/08/09 04:06:53;;;;;;;3.13;2.50;;;13.30;99.90;;;;;;5035124;28;20049;-76
2022/08/09 04:09:19;;;;;;;4.75;2.78;;;13.30;99.90;;;;;;5035376;28;20052;-76
2022/08/09 04:12:16;;;;;;;3.85;2.72;;;13.40;99.90;;;;;;5035306;28;20435;-77
2022/08/09 04:14:42;;;;;;;6.43;3.90;;;13.40;99.90;;;;;;5017178;28;20053;-76
2022/08/09 04:17:07;;;;;;;5.90;3.15;;;13.40;99.90;;;;;;5034992;28;20049;-76
2022/08/09 04:19:34;;;;;;;5.72;3.58;;;13.50;99.90;;;;;;5033968;28;20343;-77
2022/08/09 04:22:00;;;;;;;6.65;4.60;;;13.50;99.90;;;;;;5035138;28;20125;-76
2022/08/09 04:24:25;;;;;;;8.38;5.53;;;13.60;99.90;;;;;;5034959;28;20498;-76
2022/08/09 04:26:52;;;;;;;7.95;5.47;;;13.70;99.90;;;;;;5034658;28;20128;-76
2022/08/09 04:29:18;;;;;;;7.30;4.20;;;13.70;99.90;;;;;;5034570;28;20047;-76
2022/08/09 04:31:43;;;;;;;5.82;5.28;;;13.80;99.90;;;;;;5034520;28;20121;-76
2022/08/09 04:34:09;;;;;;;6.07;4.10;;;14.00;99.90;;;;;;5034550;28;20045;-77
2022/08/09 04:36:35;;;;;;;7.55;4.50;;;14.00;99.90;;;;;;5034530;28;20049;-77
2022/08/09 04:39:04;;;;;;;6.18;4.15;;;14.00;99.90;;;;;;5034522;28;20124;-77
2022/08/09 04:41:31;;;;;;;6.40;4.35;;;14.00;99.90;;;;;;5034702;28;20044;-77
2022/08/09 04:43:57;;;;;;;6.38;4.53;;;14.10;99.90;;;;;;5034665;28;20049;-77
2022/08/09 04:46:23;;;;;;;8.38;4.65;;;14.10;99.90;;;;;;5034792;28;20056;-77
2022/08/09 04:48:48;;;;;;;7.60;4.38;;;14.20;99.90;;;;;;5033915;28;20489;-77
2022/08/09 04:51:15;;;;;;;4.07;3.60;;;14.20;99.90;;;;;;5034154;28;20045;-77
2022/08/09 04:53:41;;;;;;;6.00;3.75;;;14.20;99.90;;;;;;5034294;28;20049;-77
2022/08/09 04:56:07;;;;;;;6.78;4.15;;;14.30;99.90;;;;;;5033968;28;20077;-77
2022/08/09 04:58:33;;;;;;;6.30;4.82;;;14.30;99.90;;;;;;5033944;28;20042;-77
2022/08/09 05:01:00;;;;;;;6.15;3.97;;;14.40;99.90;;;;;;5034154;28;20038;-77
2022/08/09 05:03:26;;;;;;;5.70;4.07;;;14.50;99.90;;;;;;5033801;28;20041;-77
2022/08/09 05:05:51;;;;;;;4.47;3.08;;;14.50;99.90;;;;;;5033229;28;20105;-79
2022/08/09 05:08:17;;;;;;;5.82;3.65;;;14.50;99.90;;;;;;5033301;28;20138;-77
2022/08/09 05:10:43;;;;;;;6.60;3.83;;;14.60;99.90;;;;;;5033591;28;20049;-78
2022/08/09 05:13:09;;;;;;;4.93;3.67;;;14.60;99.90;;;;;;5033489;28;20388;-77
2022/08/09 05:15:35;;;;;;;4.97;4.03;;;14.70;99.90;;;;;;5034074;28;20041;-77
2022/08/09 05:18:01;;;;;;;8.70;3.90;;;14.70;99.90;;;;;;5033527;28;20462;-77
2022/08/09 05:20:27;;;;;;;7.10;3.55;;;14.80;99.90;;;;;;5033391;28;20096;-77
2022/08/09 05:22:53;;;;;;;5.97;3.53;;;14.90;99.90;;;;;;5033459;28;20042;-77
2022/08/09 05:25:20;;;;;;;5.10;3.45;;;15.00;99.90;;;;;;5031918;28;20045;-81
2022/08/09 05:27:45;;;;;;;5.13;3.25;;;15.10;99.90;;;;;;5032969;28;20048;-78
2022/08/09 05:30:12;;;;;;;7.38;3.67;;;15.10;99.90;;;;;;5033247;28;20120;-79
2022/08/09 05:32:37;;;;;;;3.60;2.85;;;15.20;99.90;;;;;;5033378;28;20045;-79
2022/08/09 05:35:04;;;;;;;4.93;3.30;;;15.30;99.90;;;;;;5033953;28;20500;-79
2022/08/09 05:37:30;;;;;;;4.65;3.08;;;15.30;99.90;;;;;;5033731;28;20145;-79
2022/08/09 05:39:57;;;;;;;6.20;3.53;;;15.40;99.90;;;;;;5033349;28;20045;-79
2022/08/09 05:42:24;;;;;;;5.47;3.53;;;15.50;99.90;;;;;;5033232;28;20056;-80
2022/08/09 05:44:54;;;;;;;5.95;3.88;;;15.60;99.90;;;;;;5033191;28;20046;-79
2022/08/09 05:47:21;;;;;;;7.63;3.70;;;15.70;99.90;;;;;;5033529;28;20124;-79
2022/08/09 05:49:47;;;;;;;5.65;3.50;;;15.80;99.90;;;;;;5032967;28;20053;-79
2022/08/09 05:52:13;;;;;;;4.97;3.10;;;15.80;99.90;;;;;;5033253;28;20050;-81
2022/08/09 05:54:39;;;;;;;4.85;3.38;;;15.90;99.90;;;;;;5032947;28;20059;-79
2022/08/09 05:57:05;;;;;;;6.20;4.47;;;16.00;99.90;;;;;;5033202;28;20397;-80
2022/08/09 05:59:31;;;;;;;7.60;3.55;;;16.10;99.90;;;;;;5032098;28;20049;-81
2022/08/09 06:01:57;;;;;;;3.55;2.97;;;16.10;99.90;;;;;;5032701;28;20104;-79
2022/08/09 06:04:22;;;;;;;3.95;3.58;;;16.20;99.90;;;;;;5032397;28;20045;-80
2022/08/09 06:06:48;;;;;;;5.40;4.03;;;16.30;99.90;;;;;;5032522;28;20045;-81
2022/08/09 06:09:14;;;;;;;6.82;2.92;;;16.30;99.90;;;;;;5032842;28;20060;-82
2022/08/09 06:11:40;;;;;;;5.80;4.00;;;16.40;99.90;;;;;;5032594;28;20128;-80
2022/08/09 06:14:05;;;;;;;5.38;3.28;;;16.50;99.90;;;;;;5032522;28;20049;-80
2022/08/09 06:16:31;;;;;;;6.40;3.05;;;16.50;99.90;;;;;;5031577;28;20048;-81
2022/08/09 06:18:57;;;;;;;6.53;3.40;;;16.60;99.90;;;;;;5032092;28;20496;-81
2022/08/09 06:21:23;;;;;;;7.10;3.92;;;16.70;99.90;;;;;;5032438;28;20033;-81
2022/08/09 06:23:48;;;;;;;10.20;4.05;;;16.80;99.90;;;;;;5031142;28;20057;-81
2022/08/09 06:26:15;;;;;;;4.85;3.25;;;16.80;99.90;;;;;;5032261;28;20049;-79
2022/08/09 06:28:41;;;;;;;6.30;4.32;;;16.90;99.90;;;;;;5032145;28;20045;-81
2022/08/09 06:31:06;;;;;;;6.30;4.30;;;17.00;99.90;;;;;;5032229;28;20037;-81
2022/08/09 06:33:32;;;;;;;9.05;4.78;;;17.10;99.90;;;;;;5037677;28;20068;-79
2022/08/09 06:35:57;;;;;;;7.50;3.90;;;17.20;99.90;;;;;;5037510;28;20456;-79
2022/08/09 06:38:23;;;;;;;4.50;3.92;;;17.20;99.90;;;;;;5037519;28;20474;-79
2022/08/09 06:40:49;;;;;;;5.90;4.30;;;17.30;99.90;;;;;;5037215;28;20478;-80
2022/08/09 06:43:14;;;;;;;5.45;3.97;;;17.40;99.90;;;;;;5037875;28;20055;-79
2022/08/09 06:45:40;;;;;;;6.20;3.45;;;17.50;99.90;;;;;;5036347;28;20105;-79
2022/08/09 06:48:06;;;;;;;5.15;3.85;;;17.70;99.90;;;;;;5032816;28;20045;-79
2022/08/09 06:50:32;;;;;;;4.63;4.07;;;17.90;99.90;;;;;;5032300;28;20037;-79
2022/08/09 06:52:59;;;;;;;6.82;3.58;;;18.20;99.90;;;;;;5032489;28;20049;-79
2022/08/09 06:55:28;;;;;;;7.30;4.25;;;18.60;99.90;;;;;;5032516;28;20480;-79
2022/08/09 06:57:54;;;;;;;6.65;3.42;;;19.50;99.90;;;;;;5032305;28;20070;-79
2022/08/09 07:00:20;;;;;;;5.43;2.95;;;20.70;99.90;;;;;;5032531;28;20126;-79
2022/08/09 07:02:46;;;;;;;3.58;2.95;;;21.60;99.90;;;;;;5032282;28;20050;-80
2022/08/09 07:05:12;;;;;;;4.78;3.00;;;;;;;;;;5032008;28;20060;-80
2022/08/09 07:07:38;;;;;;;3.05;2.75;;;23.60;99.90;;;;;;5031916;28;20041;-81
2022/08/09 07:10:04;;;;;;;3.67;2.95;;;24.80;99.90;;;;;;5014523;28;20046;-81
2022/08/09 07:12:30;;;;;;;4.95;3.40;;;25.40;99.90;;;;;;5031517;28;20141;-81
2022/08/09 07:14:56;;;;;;;4.13;2.95;;;26.00;99.90;;;;;;5032021;28;20100;-80
2022/08/09 07:17:21;;;;;;;3.15;1.92;;;26.70;99.90;;;;;;5031748;28;20045;-80
2022/08/09 07:19:47;;;;;;;2.45;1.80;;;27.00;99.90;;;;;;5031762;28;20041;-78
2022/08/09 07:22:13;;;;;;;2.33;1.73;;;26.80;98.00;;;;;;5031365;28;20042;-78
2022/08/09 07:24:39;;;;;;;3.50;1.52;;;26.40;96.40;;;;;;5031792;28;20045;-79
2022/08/09 07:27:04;;;;;;;1.83;1.52;;;26.60;97.30;;;;;;5032079;28;20057;-78
2022/08/09 07:29:30;;;;;;;2.65;1.63;;;27.00;96.50;;;;;;5031424;28;20042;-78
2022/08/09 07:31:58;;;;;;;2.15;1.80;;;27.30;95.30;;;;;;5034792;28;20065;-76
2022/08/09 07:34:24;;;;;;;3.28;1.95;;;27.50;94.40;;;;;;5035166;28;20053;-76
2022/08/09 07:36:50;;;;;;;3.60;2.28;;;27.10;93.80;;;;;;5035842;28;20128;-75
2022/08/09 07:39:16;;;;;;;2.83;1.90;;;27.00;94.00;;;;;;5035264;28;20495;-76
2022/08/09 07:41:42;;;;;;;3.03;1.80;;;27.60;93.90;;;;;;5035369;28;20053;-76
2022/08/09 07:44:08;;;;;;;2.60;1.58;;;28.10;93.20;;;;;;5035523;28;20366;-77
2022/08/09 07:46:33;;;;;;;2.78;1.27;;;28.30;92.70;;;;;;5035512;28;20063;-77
2022/08/09 07:48:59;;;;;;;2.92;1.17;;;28.20;92.20;;;;;;5035180;28;20487;-76
2022/08/09 07:51:25;;;;;;;4.05;1.27;;;28.40;91.80;;;;;;5035230;28;20037;-77
2022/08/09 07:53:51;;;;;;;1.67;1.50;;;28.30;91.80;;;;;;5035113;28;20132;-76
2022/08/09 07:56:17;;;;;;;1.58;1.30;;;28.40;91.60;;;;;;5034650;28;20061;-76
2022/08/09 07:58:42;;;;;;;2.03;1.67;;;28.80;91.20;;;;;;5034695;28;20049;-75
2022/08/09 08:01:10;;;;;;;2.25;1.95;;;28.90;90.60;;;;;;5035062;28;20052;-75
2022/08/09 08:03:36;;;;;;;3.40;1.58;;;27.60;90.70;;;;;;5034901;28;20049;-76
2022/08/09 08:06:02;;;;;;;1.20;1.05;;;27.30;91.20;;;;;;5034880;28;20085;-76
2022/08/09 08:08:29;;;;;;;1.83;1.40;;;26.60;91.80;;;;;;5034621;28;20049;-77
2022/08/09 08:10:54;;;;;;;2.30;1.35;;;25.60;91.30;;;;;;5035090;28;20045;-76
2022/08/09 08:13:20;;;;;;;2.40;1.13;;;25.70;92.80;;;;;;5034706;28;20401;-78
2022/08/09 08:15:46;;;;;;;1.05;1.00;;;26.40;92.60;;;;;;5034768;28;20080;-77
2022/08/09 08:18:11;;;;;;;0.98;0.90;;;26.50;92.30;;;;;;5034741;28;20049;-78
2022/08/09 08:20:37;;;;;;;0.57;0.57;;;26.70;91.90;;;;;;5035040;28;20088;-78
2022/08/09 08:23:05;;;;;;;3.05;0.82;;;26.90;91.20;;;;;;5034243;28;20046;-77
2022/08/09 08:25:31;;;;;;;1.42;0.88;;;26.60;90.60;;;;;;5034534;28;20077;-77
2022/08/09 08:27:57;;;;;;;2.35;0.60;;;26.90;90.80;;;;;;5034537;28;20045;-77
2022/08/09 08:30:23;;;;;;;0.85;0.63;;;27.20;89.40;;;;;;5034943;28;20053;-78
2022/08/09 08:32:50;;;;;;;0.80;0.70;;;26.60;89.50;;;;;;5034770;28;20488;-78
2022/08/09 08:35:16;;;;;;;0.60;0.60;;;26.40;90.10;;;;;;5034856;28;20045;-76
2022/08/09 08:37:41;;;;;;;0.45;0.45;;;25.80;89.80;;;;;;5034611;28;20049;-78
2022/08/09 08:40:10;;;;;;;0.80;0.70;;;25.10;89.40;;;;;;5034874;28;20045;-77
2022/08/09 08:42:36;;;;;;;0.75;0.50;;;24.40;90.30;;;;;;5032508;28;20501;-76
2022/08/09 08:45:04;;;;;;;0.63;0.55;;;23.70;91.10;;;;;;5033475;28;20132;-77
2022/08/09 08:47:30;;;;;;;1.08;1.00;;;23.30;91.80;;;;;;5034202;28;20129;-78
2022/08/09 08:49:58;;;;;;;2.47;0.75;;;22.80;92.60;;;;;;5033355;28;20045;-77
2022/08/09 08:52:26;;;;;;;1.90;0.70;;;22.60;93.10;;;;;;5034113;28;20127;-77
2022/08/09 08:54:57;;;;;;;0.80;0.80;;;22.40;93.40;;;;;;5034085;28;20057;-77
2022/08/09 08:57:24;;;;;;;0.73;0.73;;;22.30;93.70;;;;;;5034235;28;20092;-76
2022/08/09 08:59:51;;;;;;;4.25;0.88;;;22.10;93.90;;;;;;5034351;28;20061;-76
2022/08/09 09:02:25;;;;;;;3.17;1.15;;;22.00;94.00;;;;;;5033808;28;20052;-77
2022/08/09 09:04:59;;;;;;;1.05;0.63;;;22.00;94.10;;;;;;5034001;28;20049;-75
2022/08/09 09:07:26;;;;;;;2.20;0.93;;;22.20;94.40;;;;;;5033935;28;20057;-81
2022/08/09 09:09:54;;;;;;;1.65;0.80;;;22.80;93.70;;;;;;5034205;28;20045;-84
2022/08/09 09:12:22;;;;;;;0.47;0.47;;;23.30;93.40;;;;;;5033739;28;20049;-80
2022/08/09 09:14:49;;;;;;;0.80;0.65;;;24.10;92.70;;;;;;5036891;28;20515;-82
2022/08/09 09:17:15;;;;;;;1.13;0.50;;;24.80;91.90;;;;;;5037064;28;20052;-82
2022/08/09 09:19:42;;;;;;;0.55;0.55;;;25.60;91.60;;;;;;5037203;28;20120;-82
2022/08/09 09:22:13;;;;;;;0.60;0.60;;;26.10;90.70;;;;;;5036945;28;20124;-80
2022/08/09 09:24:53;;;;;;;1.13;0.52;;;26.30;91.00;;;;;;5034499;28;20478;-80
2022/08/09 09:27:26;;;;;;;1.13;0.68;;;26.80;89.10;;;;;;5033725;28;20041;-79
2022/08/09 09:29:53;;;;;;;0.65;0.65;;;27.10;89.20;;;;;;5033091;28;20586;-80
2022/08/09 09:32:21;;;;;;;0.40;0.40;;;27.80;88.70;;;;;;5033245;28;20053;-80
2022/08/09 09:35:10;;;;;;;0.77;0.70;;;27.80;88.60;;;;;;5033590;28;20059;-80
2022/08/09 09:37:38;;;;;;;1.85;0.60;;;27.70;85.20;;;;;;5033103;28;20049;-80
2022/08/09 09:40:04;;;;;;;0.68;0.68;;;26.70;88.80;;;;;;5033650;28;20092;-81
2022/08/09 09:42:31;;;;;;;0.60;0.60;;;25.90;89.50;;;;;;5032682;28;20068;-81
2022/08/09 09:44:59;;;;;;;0.60;0.60;;;25.80;90.10;;;;;;5033059;28;20099;-79
2022/08/09 09:47:26;;;;;;;0.60;0.60;;;26.30;88.50;;;;;;5033017;28;20049;-80
2022/08/09 09:49:53;;;;;;;0.60;0.60;;;26.70;89.40;;;;;;5033387;28;20120;-77
2022/08/09 09:52:20;;;;;;;0.80;0.63;;;27.70;87.70;;;;;;5032794;28;20495;-82
2022/08/09 09:54:46;;;;;;;1.00;0.68;;;27.70;87.90;;;;;;5031804;28;20054;-79
2022/08/09 09:57:23;;;;;;;0.70;0.60;;;26.90;87.30;;;;;;5031709;28;20053;-81
2022/08/09 09:59:51;;;;;;;0.50;0.50;;;26.30;88.00;;;;;;5031674;28;20052;-83
2022/08/09 10:02:17;;;;;;;0.88;0.70;;;26.10;90.00;;;;;;5033238;28;20052;-80
2022/08/09 10:04:44;;;;;;;0.98;0.60;;;26.30;89.80;;;;;;5033347;28;20037;-81
2022/08/09 10:07:21;;;;;;;0.68;0.68;;;26.60;88.90;;;;;;5031701;28;20045;-80
2022/08/09 10:09:49;;;;;;;0.95;0.80;;;27.30;87.70;;;;;;5032842;28;20103;-82
2022/08/09 10:12:28;;;;;;;0.40;0.40;;;27.50;87.30;;;;;;5032744;28;20049;-83
2022/08/09 10:15:14;;;;;;;0.88;0.60;;;27.60;86.40;;;;;;5033283;28;20104;-82
2022/08/09 10:17:42;;;;;;;1.02;0.90;;;27.40;84.80;;;;;;5031784;28;20140;-80
2022/08/09 10:20:20;;;;;;;0.88;0.60;;;27.50;87.00;;;;;;5032750;28;20045;-82
2022/08/09 10:22:54;;;;;;;0.82;0.57;;;27.80;86.30;;;;;;5032796;28;20046;-79
2022/08/09 10:25:22;;;;;;;1.05;0.55;;;27.70;86.30;;;;;;5032691;28;20048;-80
2022/08/09 10:27:49;;;;;;;1.65;0.60;;;28.00;86.60;;;;;;5034730;28;20049;-80
2022/08/09 10:30:15;;;;;;;1.25;0.70;;;28.20;86.20;;;;;;5039097;28;20045;-79
2022/08/09 10:32:42;;;;;;;0.55;0.52;;;28.50;86.30;;;;;;5037516;28;20403;-80
2022/08/09 10:35:09;;;;;;;0.60;0.60;;;28.50;85.20;;;;;;5037183;28;20466;-81
2022/08/09 10:37:35;;;;;;;0.80;0.80;;;28.20;85.30;;;;;;5038195;28;20191;-81
2022/08/09 10:40:01;;;;;;;1.48;0.65;;;27.50;84.50;;;;;;5037846;28;20042;-80
2022/08/09 10:42:27;;;;;;;0.93;0.70;;;27.70;85.40;;;;;;5038160;28;20045;-79
2022/08/09 10:45:06;;;;;;;3.00;0.80;;;27.40;85.40;;;;;;5036369;28;20054;-79
2022/08/09 10:47:43;;;;;;;0.85;0.68;;;27.90;85.20;;;;;;5035744;28;20438;-79
2022/08/09 10:53:41;;;;;;;1.38;0.60;;;28.20;83.40;;;;;;5032712;28;20381;-81
2022/08/09 10:56:15;;;;;;;1.30;0.63;;;28.50;83.20;;;;;;5032301;28;20061;-80
2022/08/09 10:58:41;;;;;;;1.08;1.08;;;28.30;83.80;;;;;;5032535;28;20072;-79
2022/08/09 11:01:34;;;;;;;1.50;0.93;;;27.80;85.10;;;;;;5032214;28;20463;-80
2022/08/09 11:04:12;;;;;;;1.23;1.00;;;27.20;83.90;;;;;;5031118;28;20136;-79
2022/08/09 11:06:40;;;;;;;0.68;0.68;;;26.50;84.30;;;;;;5035656;28;20055;-84
2022/08/09 11:09:07;;;;;;;3.50;0.93;;;26.20;86.00;;;;;;5036172;28;20052;-80
2022/08/09 11:11:53;;;;;;;1.17;0.93;;;25.80;87.00;;;;;;5036067;28;20084;-81
2022/08/09 11:14:31;;;;;;;2.95;1.25;;;25.90;87.00;;;;;;5014921;28;20136;-78
2022/08/09 11:16:57;;;;;;;2.38;1.02;;;26.20;87.20;;;;;;5036345;28;20535;-79
2022/08/09 11:20:03;;;;;;;0.85;0.70;;;25.90;87.40;;;;;;5035926;28;20045;-78
2022/08/09 11:22:43;;;;;;;1.23;1.13;;;25.40;87.00;;;;;;5036279;28;20045;-77
2022/08/09 11:25:14;;;;;;;1.67;1.17;;;25.70;87.40;;;;;;5036101;28;20067;-78
2022/08/09 11:28:06;;;;;;;1.20;1.02;;;25.90;86.80;;;;;;5035823;28;20045;-78
2022/08/09 11:30:34;;;;;;;0.85;0.85;;;25.90;86.60;;;;;;5032395;28;20466;-76
2022/08/09 11:33:24;;;;;;;1.08;1.00;;;26.00;86.40;;;;;;5035636;28;20553;-77
2022/08/09 11:35:59;;;;;;;2.03;0.80;;;26.10;86.70;;;;;;5036103;28;20041;-76
2022/08/09 11:38:27;;;;;;;1.13;1.02;;;25.80;87.10;;;;;;5035854;28;20051;-77
2022/08/09 11:40:53;;;;;;;0.93;0.93;;;25.60;87.10;;;;;;5035600;28;20053;-79
2022/08/09 11:43:28;;;;;;;1.10;0.80;;;25.50;86.80;;;;;;5035443;28;20094;-78
2022/08/09 11:45:56;;;;;;;3.22;1.00;;;25.20;88.10;;;;;;5035652;28;20045;-78
2022/08/09 11:48:29;;;;;;;0.98;0.90;;;25.00;89.10;;;;;;5035663;28;20053;-79
2022/08/09 11:51:08;;;;;;;0.88;0.88;;;24.50;89.90;;;;;;5035841;28;20056;-80
2022/08/09 11:53:38;;;;;;;1.20;1.10;;;24.60;90.60;;;;;;5035888;28;20041;-77
2022/08/09 11:56:12;;;;;;;1.52;1.13;;;24.30;90.60;;;;;;5034893;28;20104;-78
2022/08/09 11:58:39;;;;;;;1.35;1.08;;;24.20;91.60;;;;;;5033949;28;20581;-79
2022/08/09 12:01:05;;;;;;;1.25;1.05;;;24.20;90.90;;;;;;5033922;28;20477;-78
2022/08/09 12:03:31;;;;;;;1.00;0.90;;;24.00;91.20;;;;;;5035251;28;20054;-79
2022/08/09 12:06:00;;;;;;;1.27;1.15;;;24.20;90.90;;;;;;5035101;28;20042;-81
2022/08/09 12:08:27;;;;;;;0.75;0.73;;;24.00;91.20;;;;;;5035612;28;20060;-76
2022/08/09 12:10:56;;;;;;;1.73;1.00;;;24.20;91.30;;;;;;5035032;28;20042;-78
2022/08/09 12:13:36;;;;;;;4.43;1.30;;;24.30;91.40;;;;;;5034652;28;20053;-79
2022/08/09 12:16:10;;;;;;;1.65;0.93;;;24.30;91.20;;;;;;5034664;28;20049;-76
2022/08/09 12:18:39;;;;;;;1.77;0.75;;;24.10;91.50;;;;;;5033903;28;20052;-78
2022/08/09 12:21:07;;;;;;;1.27;0.85;;;24.20;91.40;;;;;;5034625;28;20049;-78
2022/08/09 12:23:41;;;;;;;1.10;0.85;;;24.20;91.50;;;;;;5033679;28;20106;-77
2022/08/09 12:26:06;;;;;;;1.40;0.75;;;24.60;91.30;;;;;;5034694;28;20119;-78
2022/08/09 12:28:33;;;;;;;1.15;0.93;;;24.50;91.20;;;;;;5034541;28;20488;-81
2022/08/09 12:30:59;;;;;;;2.08;0.98;;;24.40;90.80;;;;;;5034152;28;20041;-79
2022/08/09 12:33:25;;;;;;;1.05;1.00;;;24.60;91.00;;;;;;5034513;28;20041;-78
2022/08/09 12:36:04;;;;;;;1.55;1.00;;;24.70;90.80;;;;;;5034803;28;20133;-80
2022/08/09 12:38:30;;;;;;;3.35;1.42;;;24.50;91.00;;;;;;5034330;28;20049;-79
2022/08/09 12:40:57;;;;;;;1.80;0.80;;;24.20;91.10;;;;;;5034491;28;20187;-78
2022/08/09 12:43:25;;;;;;;1.17;1.10;;;24.40;91.40;;;;;;5034232;28;20106;-79
2022/08/09 12:45:53;;;;;;;1.80;0.80;;;24.40;90.80;;;;;;5034586;28;20053;-78
2022/08/09 12:48:19;;;;;;;4.20;0.70;;;24.30;90.90;;;;;;5034052;28;20054;-79
2022/08/09 12:50:46;;;;;;;1.15;0.88;;;24.50;90.50;;;;;;5034293;28;20049;-80
2022/08/09 12:53:25;;;;;;;1.27;0.88;;;24.50;90.50;;;;;;5034179;28;20145;-80
2022/08/09 12:55:51;;;;;;;0.80;0.80;;;24.70;90.30;;;;;;5033543;28;20069;-78
2022/08/09 12:58:17;;;;;;;0.70;0.70;;;24.70;90.30;;;;;;5033753;28;20522;-78